Pagrindinis puslapis
METAR-TAF:

METAR-TAF

Oro uostai :

Trumsė, Norvegija

platuma: 69-41N, ilguma: 018-55E, Aukštis: 1 m

Dabartinis oras

Ataskaita buvo paskelbta 23 minutes, ne 05:50 UTC
Vėjas 10 kt iš Pietų
Temperatūra -3°C
Drėgmė 80%
Slėgis 1009 hPa
Matomumas 10 km arba daugiau
Mažai debesys ne aukštis 1000 ft
Išsisklaidę debesys ne aukštis 2200 ft
Su prošvaistėmis ne aukštis 4500 ft
Liūtis kaimynystėje

METAR: ENTC 100550Z 18010KT 9999 VCSH FEW010 SCT022 BKN045 M03/M06 Q1009 TEMPO 28010KT 0800 SHSN VV006 RMK WIND 2600FT 26014KT

Laikas: 08:13 (06:13 UTC)

Prognozė

Prognozė galioja nuo 10 metu 06 UTC su 11 metu 06 UTC
Vėjas 9 kt iš Vakarų
Matomumas 10 km arba daugiau
Mažai debesys ne aukštis 1500 ft, Liūtiniai kamuoliniai debesys.
Su prošvaistėmis ne aukštis 3500 ft
Laikinai
nuo 10 metu 06 UTC su 11 metu 06 UTC
Vėjas 10 kt iš Pietų/Pietvakarių
Matomumas: 0800 m
ne aukštis 600 ft
sniegas

TAF: ENTC 1006/1106 28009KT 9999 FEW015CB BKN035 TEMPO 1006/1106 21010KT 0800 SHSN VV006

Orai ataskaitas ir orų prognozės (METAR, TAF).

turimą stotys yra geltonos ir raudonos taškus žemėlapyje.

Perkelti pele per norėdami pamatyti stoties vardą.

Tada spustelėkite, norėdami matyti oro stebėjimo ir prognozės.

Norėdami pakeisti žemėlapį: spustelėkite ant žalios mygtukų su juodo kryžiaus žemyn,; žalią mygtuką su brūkšneliu, jei norite nutolinti; arba žalių rodyklių gretimoms žemėlapius.


METAR-TAF: